Time;durP1;ratioP1;P1;durP2;ratioP2;P2;SDS_P1;SDS_P2;PMS_P1;PMS_P2;Temp;Humidity;BMP_temperature;BMP_pressure;BME280_temperature;BME280_humidity;BME280_pressure;Samples;Min_cycle;Max_cycle;Signal;HPM_P1;HPM_P2
2022/10/15 00:01:30;;;;;;;;;;;;;;;18.59;63.58;100243.31;2342978;75;22824;-76
2022/10/15 00:04:32;;;;;;;;;;;;;;;18.60;63.50;100240.95;2378605;75;51494;-75
2022/10/15 00:07:33;;;;;;;;;;;;;;;18.59;63.52;100238.78;2384198;73;50718;-75
2022/10/15 00:10:35;;;;;;;;;;;;;;;18.58;63.53;100234.97;2351729;75;49582;-76
2022/10/15 00:13:37;;;;;;;;;;;;;;;18.58;63.48;100229.09;2346438;75;51397;-76
2022/10/15 00:16:38;;;;;;;;;;;;;;;18.57;63.48;100223.41;2369081;75;50730;-75
2022/10/15 00:19:40;;;;;;;;;;;;;;;18.58;63.44;100225.59;2369224;75;51562;-75
2022/10/15 00:22:41;;;;;;;;;;;;;;;18.57;63.48;100211.34;2319947;75;51002;-75
2022/10/15 00:25:43;;;;;;;;;;;;;;;18.57;63.48;100203.82;2368937;75;51561;-75
2022/10/15 00:28:45;;;;;;;;;;;;;;;18.58;63.45;100198.28;2369047;75;51857;-75
2022/10/15 00:31:46;;;;;;;;;;;;;;;18.58;63.40;100198.80;2369098;75;50783;-75
2022/10/15 00:34:48;;;;;;;;;;;;;;;18.56;63.42;100188.78;2319879;75;52554;-75
2022/10/15 00:37:50;;;;;;;;;;;;;;;18.56;63.42;100188.78;2362303;74;51528;-74
2022/10/15 00:40:51;;;;;;;;;;;;;;;18.58;63.36;100197.46;2393492;74;50453;-75
2022/10/15 00:43:54;;;;;;;;;;;;;;;18.57;63.38;100190.42;2365893;74;50420;-75
2022/10/15 00:47:00;;;;;;;;;;;;;;;18.56;63.39;100184.77;2372973;74;51042;-76
2022/10/15 00:50:09;;;;;;;;;;;;;;;18.55;63.34;100194.66;2378891;73;50314;-76
2022/10/15 00:53:10;;;;;;;;;;;;;;;18.55;63.34;100199.16;2378680;75;51579;-75
2022/10/15 00:56:12;;;;;;;;;;;;;;;18.56;63.35;100192.80;2378399;75;51547;-76
2022/10/15 00:59:14;;;;;;;;;;;;;;;18.57;63.27;100194.45;2354807;75;50988;-76
2022/10/15 01:02:16;;;;;;;;;;;;;;;18.55;63.33;100181.75;2353253;75;51406;-75
2022/10/15 01:05:18;;;;;;;;;;;;;;;18.55;63.30;100175.91;2352899;75;50477;-76
2022/10/15 01:08:20;;;;;;;;;;;;;;;18.55;63.31;100168.35;2376028;75;51544;-75
2022/10/15 01:11:26;;;;;;;;;;;;;;;18.53;63.33;100163.20;2352923;75;51291;-76
2022/10/15 01:14:46;;;;;;;;;;;;;;;18.53;63.31;100155.69;2360968;74;52737;-76
2022/10/15 01:17:49;;;;;;;;;;;;;;;18.55;63.31;100153.61;2397879;74;51416;-76
2022/10/15 01:20:52;;;;;;;;;;;;;;;18.54;63.25;100154.13;2397827;74;50460;-76
2022/10/15 01:24:01;;;;;;;;;;;;;;;18.53;63.26;100147.12;2397504;73;51510;-76
2022/10/15 01:27:23;;;;;;;;;;;;;;;18.55;63.23;100150.94;2376996;74;52523;-75
2022/10/15 01:30:25;;;;;;;;;;;;;;;18.55;63.21;100148.25;2397770;73;50695;-76
2022/10/15 01:33:37;;;;;;;;;;;;;;;18.52;63.23;100133.40;2397548;74;51635;-76
2022/10/15 01:36:40;;;;;;;;;;;;;;;18.53;63.20;100136.41;2397725;74;51528;-76
2022/10/15 01:39:43;;;;;;;;;;;;;;;18.52;63.23;100131.23;2377002;74;50037;-76
2022/10/15 01:42:46;;;;;;;;;;;;;;;18.53;63.21;100131.58;2386459;73;50266;-75
2022/10/15 01:45:50;;;;;;;;;;;;;;;18.52;63.21;100129.90;2352346;74;50436;-76
2022/10/15 01:48:52;;;;;;;;;;;;;;;18.52;63.19;100131.23;2363070;75;51645;-76
2022/10/15 01:51:53;;;;;;;;;;;;;;;18.52;63.18;100121.86;2378531;75;51568;-76
2022/10/15 01:54:55;;;;;;;;;;;;;;;18.52;63.15;100122.69;2378897;75;51511;-75
2022/10/15 01:57:57;;;;;;;;;;;;;;;18.49;63.19;100119.88;2378586;75;51507;-76
2022/10/15 02:00:59;;;;;;;;;;;;;;;18.52;63.18;100116.50;2378633;75;50475;-76
2022/10/15 02:04:00;;;;;;;;;;;;;;;18.52;63.11;100119.18;2354924;75;51827;-76
2022/10/15 02:07:03;;;;;;;;;;;;;;;18.52;63.10;100107.12;2355535;75;50356;-75
2022/10/15 02:10:06;;;;;;;;;;;;;;;18.50;63.12;100107.34;2380360;75;51689;-74
2022/10/15 02:13:12;;;;;;;;;;;;;;;18.50;63.16;100110.02;2354105;74;50710;-76
2022/10/15 02:16:15;;;;;;;;;;;;;;;18.52;63.10;100109.28;2353577;74;49707;-76
2022/10/15 02:19:34;;;;;;;;;;;;;;;18.51;63.11;100094.25;2378918;75;50432;-75
2022/10/15 02:22:37;;;;;;;;;;;;;;;18.50;63.08;100097.45;2378935;75;51616;-75
2022/10/15 02:25:39;;;;;;;;;;;;;;;18.50;63.13;100093.42;2382001;75;50408;-74
2022/10/15 02:28:41;;;;;;;;;;;;;;;18.49;63.13;100095.77;2356665;75;51984;-75
2022/10/15 02:31:43;;;;;;;;;;;;;;;18.52;63.05;100093.21;2378951;75;51580;-75
2022/10/15 02:34:45;;;;;;;;;;;;;;;18.50;63.04;100092.09;2378718;75;50333;-75
2022/10/15 02:37:48;;;;;;;;;;;;;;;18.50;63.02;100093.42;2383914;73;51532;-75
2022/10/15 02:40:50;;;;;;;;;;;;;;;18.50;63.02;100095.28;2368546;74;49634;-75
2022/10/15 02:43:51;;;;;;;;;;;;;;;18.50;63.04;100092.61;2397962;73;50732;-75
2022/10/15 02:46:53;;;;;;;;;;;;;;;18.50;63.03;100088.06;2377220;74;50668;-76
2022/10/15 02:49:54;;;;;;;;;;;;;;;18.52;63.00;100084.35;2397862;74;51580;-75
2022/10/15 02:52:56;;;;;;;;;;;;;;;18.50;63.00;100077.87;2377370;74;52539;-75
2022/10/15 02:55:58;;;;;;;;;;;;;;;18.50;62.99;100078.69;2397693;74;51518;-75
2022/10/15 02:58:59;;;;;;;;;;;;;;;18.49;62.98;100078.36;2377051;74;52119;-76
2022/10/15 03:02:01;;;;;;;;;;;;;;;18.50;62.98;100078.69;2397875;74;50320;-75
2022/10/15 03:05:02;;;;;;;;;;;;;;;18.50;62.97;100082.71;2349640;74;51211;-76
2022/10/15 03:08:04;;;;;;;;;;;;;;;18.49;62.98;100079.70;2374952;73;50252;-75
2022/10/15 03:11:06;;;;;;;;;;;;;;;18.50;62.95;100076.02;2345933;75;51516;-75
2022/10/15 03:14:07;;;;;;;;;;;;;;;18.48;62.95;100074.03;2378009;74;50379;-75
2022/10/15 03:17:09;;;;;;;;;;;;;;;18.48;62.95;100071.36;2382508;73;49611;-75
2022/10/15 03:20:10;;;;;;;;;;;;;;;18.49;62.93;100077.53;2378753;75;50136;-75
2022/10/15 03:23:12;;;;;;;;;;;;;;;18.50;62.92;100074.67;2378117;74;50402;-75
2022/10/15 03:26:14;;;;;;;;;;;;;;;18.50;62.90;100076.02;2378571;75;50441;-74
2022/10/15 03:29:15;;;;;;;;;;;;;;;18.49;62.89;100070.32;2382312;74;52541;-73
2022/10/15 03:32:17;;;;;;;;;;;;;;;18.49;62.90;100065.48;2378730;75;50420;-75
2022/10/15 03:35:18;;;;;;;;;;;;;;;18.48;62.93;100053.94;2378105;74;52149;-75
2022/10/15 03:38:20;;;;;;;;;;;;;;;18.49;62.89;100059.61;2377254;75;50724;-73
2022/10/15 03:41:22;;;;;;;;;;;;;;;18.49;62.88;100053.42;2354356;75;50122;-75
2022/10/15 03:44:23;;;;;;;;;;;;;;;18.49;62.73;100051.56;2368852;75;51452;-75
2022/10/15 03:47:25;;;;;;;;;;;;;;;18.50;62.74;100053.77;2348452;75;51432;-74
2022/10/15 03:50:26;;;;;;;;;;;;;;;18.56;62.75;100057.50;2355264;75;51550;-75
2022/10/15 03:53:28;;;;;;;;;;;;;;;18.63;62.65;100053.83;2354996;74;51307;-75
2022/10/15 03:56:29;;;;;;;;;;;;;;;18.67;62.49;100057.75;2355361;75;50371;-75
2022/10/15 03:59:31;;;;;;;;;;;;;;;18.68;62.41;100050.56;2378709;75;50405;-75
2022/10/15 04:02:33;;;;;;;;;;;;;;;18.69;62.39;100052.20;2355322;75;50413;-75
2022/10/15 04:05:35;;;;;;;;;;;;;;;18.69;62.34;100059.73;2354821;75;49578;-75
2022/10/15 04:08:36;;;;;;;;;;;;;;;18.68;62.35;100053.24;2351094;74;51578;-74
2022/10/15 04:11:38;;;;;;;;;;;;;;;18.70;62.30;100057.87;2357369;74;50331;-75
2022/10/15 04:14:39;;;;;;;;;;;;;;;18.66;62.33;100053.43;2306195;76;52472;-75
2022/10/15 04:17:41;;;;;;;;;;;;;;;18.64;62.43;100060.01;2280796;76;50078;-76
2022/10/15 04:20:43;;;;;;;;;;;;;;;18.61;62.49;100057.73;2306558;76;50371;-75
2022/10/15 04:23:44;;;;;;;;;;;;;;;18.63;62.45;100062.39;2365294;73;50220;-75
2022/10/15 04:26:46;;;;;;;;;;;;;;;18.64;62.43;100062.69;2355320;75;50718;-75
2022/10/15 04:29:48;;;;;;;;;;;;;;;18.65;62.41;100064.33;2354967;75;51229;-76
2022/10/15 04:32:51;;;;;;;;;;;;;;;18.63;62.45;100057.03;2378402;75;51528;-75
2022/10/15 04:35:59;;;;;;;;;;;;;;;18.60;62.53;100067.63;2377402;74;51619;-75
2022/10/15 04:39:01;;;;;;;;;;;;;;;18.63;62.40;100067.23;2379287;74;51397;-75
2022/10/15 04:42:03;;;;;;;;;;;;;;;18.62;62.44;100065.55;2313181;76;51599;-74
2022/10/15 04:45:05;;;;;;;;;;;;;;;18.60;62.42;100067.63;2315464;76;50783;-75
2022/10/15 04:48:06;;;;;;;;;;;;;;;18.61;62.43;100070.61;2315680;76;50427;-75
2022/10/15 04:51:08;;;;;;;;;;;;;;;18.60;62.48;100065.44;2315637;76;50398;-74
2022/10/15 04:54:10;;;;;;;;;;;;;;;18.62;62.47;100063.39;2315411;76;51132;-75
2022/10/15 04:57:11;;;;;;;;;;;;;;;18.63;62.42;100065.89;2315526;76;50065;-75
2022/10/15 05:00:13;;;;;;;;;;;;;;;18.63;62.40;100073.92;2337784;76;50306;-74
2022/10/15 05:03:15;;;;;;;;;;;;;;;18.62;62.43;100073.59;2315494;76;51700;-75
2022/10/15 05:06:17;;;;;;;;;;;;;;;18.64;62.35;100069.39;2272604;76;52553;-75
2022/10/15 05:09:19;;;;;;;;;;;;;;;18.67;62.21;100067.13;2372012;74;50777;-76
2022/10/15 05:12:21;;;;;;;;;;;;;;;18.67;62.25;100067.65;2395209;74;50258;-74
2022/10/15 05:15:22;;;;;;;;;;;;;;;18.61;62.37;100066.59;2397747;74;50463;-75
2022/10/15 05:18:24;;;;;;;;;;;;;;;18.61;62.37;100067.11;2376715;74;50919;-75
2022/10/15 05:21:25;;;;;;;;;;;;;;;18.62;62.37;100064.73;2377590;74;50731;-74
2022/10/15 05:24:27;;;;;;;;;;;;;;;18.63;62.35;100067.23;2397627;73;51516;-76
2022/10/15 05:27:28;;;;;;;;;;;;;;;18.64;62.32;100069.39;2397916;74;51460;-75
2022/10/15 05:30:31;;;;;;;;;;;;;;;18.64;62.30;100071.55;2376995;74;49584;-76
2022/10/15 05:33:33;;;;;;;;;;;;;;;18.61;62.37;100073.29;2397721;74;50338;-75
2022/10/15 05:36:35;;;;;;;;;;;;;;;18.64;62.32;100072.06;2397893;74;50437;-75
2022/10/15 05:39:37;;;;;;;;;;;;;;;18.67;62.17;100075.17;2367283;74;51591;-75
2022/10/15 05:42:39;;;;;;;;;;;;;;;18.69;62.15;100074.98;2321935;76;51039;-76
2022/10/15 05:45:40;;;;;;;;;;;;;;;18.64;62.26;100084.13;2337665;76;51494;-76
2022/10/15 05:48:42;;;;;;;;;;;;;;;18.63;62.27;100083.83;2367643;73;50338;-75
2022/10/15 05:51:43;;;;;;;;;;;;;;;18.66;62.25;100091.47;2394864;74;50340;-76
2022/10/15 05:54:45;;;;;;;;;;;;;;;18.65;62.27;100087.11;2376948;74;50045;-76
2022/10/15 05:57:46;;;;;;;;;;;;;;;18.62;62.31;100086.99;2376155;73;50716;-75
2022/10/15 06:00:55;;;;;;;;;;;;;;;18.65;62.26;100087.97;2360541;74;51530;-75
2022/10/15 06:03:56;;;;;;;;;;;;;;;18.65;62.25;100086.62;2406068;73;50758;-77
2022/10/15 06:06:58;;;;;;;;;;;;;;;18.69;62.12;100093.74;2375273;74;51103;-77
2022/10/15 06:09:59;;;;;;;;;;;;;;;18.71;62.13;100095.72;2375289;74;50717;-77
2022/10/15 06:13:01;;;;;;;;;;;;;;;18.70;62.20;100105.62;2406462;74;51422;-76
2022/10/15 06:16:03;;;;;;;;;;;;;;;18.70;62.15;100108.78;2406207;74;51468;-76
2022/10/15 06:19:05;;;;;;;;;;;;;;;18.66;62.48;100112.38;2375035;74;49536;-76
2022/10/15 06:22:06;;;;;;;;;;;;;;;18.66;62.33;100111.05;2375175;73;51451;-76
2022/10/15 06:25:08;;;;;;;;;;;;;;;18.70;62.30;100112.31;2406323;74;51559;-75
2022/10/15 06:28:10;;;;;;;;;;;;;;;18.72;62.27;100118.80;2428973;73;50470;-78
2022/10/15 06:31:11;;;;;;;;;;;;;;;18.75;62.07;100114.41;2386225;74;50954;-77
2022/10/15 06:34:13;;;;;;;;;;;;;;;18.75;61.87;100115.75;2406577;74;51418;-77
2022/10/15 06:37:14;;;;;;;;;;;;;;;18.76;61.75;100113.92;2406579;74;50456;-77
2022/10/15 06:40:16;;;;;;;;;;;;;;;18.74;61.68;100115.94;2375646;74;50063;-77
2022/10/15 06:43:18;;;;;;;;;;;;;;;18.75;61.63;100114.41;2375261;74;52320;-76
2022/10/15 06:46:19;;;;;;;;;;;;;;;18.74;61.70;100119.44;2375203;74;50393;-75
2022/10/15 06:49:21;;;;;;;;;;;;;;;18.74;61.85;100120.78;2406470;74;50197;-76
2022/10/15 06:52:25;;;;;;;;;;;;;;;18.83;61.84;100129.51;2424977;73;50716;-76
2022/10/15 06:55:27;;;;;;;;;;;;;;;18.93;61.74;100129.49;2394768;73;52552;-76
2022/10/15 06:58:29;;;;;;;;;;;;;;;19.07;61.48;100134.41;2351013;75;50835;-75
2022/10/15 07:01:31;;;;;;;;;;;;;;;19.17;61.30;100142.09;2386901;74;51535;-76
2022/10/15 07:04:32;;;;;;;;;;;;;;;19.22;61.18;100143.66;2384439;74;51472;-76
2022/10/15 07:07:34;;;;;;;;;;;;;;;19.21;61.04;100150.03;2324996;74;49613;-75
2022/10/15 07:10:35;;;;;;;;;;;;;;;19.23;60.96;100157.89;2384593;74;50379;-75
2022/10/15 07:13:37;;;;;;;;;;;;;;;19.30;60.91;100156.08;2384492;74;49773;-76
2022/10/15 07:16:39;;;;;;;;;;;;;;;19.23;61.03;100162.73;2384620;74;50738;-75
2022/10/15 07:19:40;;;;;;;;;;;;;;;19.27;60.87;100172.05;2352937;75;53589;-76
2022/10/15 07:22:42;;;;;;;;;;;;;;;19.26;60.90;100173.06;2378283;74;51514;-76
2022/10/15 07:25:44;;;;;;;;;;;;;;;19.26;60.85;100177.61;2378474;75;51530;-75
2022/10/15 07:28:45;;;;;;;;;;;;;;;19.25;60.92;100176.78;2378520;75;51511;-75
2022/10/15 07:31:47;;;;;;;;;;;;;;;19.25;60.96;100167.91;2326077;74;51288;-75
2022/10/15 07:34:48;;;;;;;;;;;;;;;19.27;60.97;100161.84;2313205;76;50463;-76
2022/10/15 07:37:50;;;;;;;;;;;;;;;19.24;61.06;100156.85;2335379;76;50397;-76
2022/10/15 07:40:51;;;;;;;;;;;;;;;19.19;61.27;100152.59;2335511;76;50644;-76
2022/10/15 07:43:53;;;;;;;;;;;;;;;19.18;61.42;100158.48;2313081;76;51058;-76
2022/10/15 07:46:55;;;;;;;;;;;;;;;19.16;61.45;100156.50;2313200;76;51553;-75
2022/10/15 07:49:56;;;;;;;;;;;;;;;19.13;61.54;100160.41;2313408;76;51463;-76
2022/10/15 07:52:58;;;;;;;;;;;;;;;19.11;61.64;100156.27;2313326;76;51833;-76
2022/10/15 07:56:00;;;;;;;;;;;;;;;19.09;61.71;100163.71;2313036;76;49586;-76
2022/10/15 07:59:01;;;;;;;;;;;;;;;19.11;61.69;100156.27;2335893;74;51586;-76
2022/10/15 08:02:03;;;;;;;;;;;;;;;19.07;61.78;100158.53;2389222;74;51551;-74
2022/10/15 08:05:05;;;;;;;;;;;;;;;19.08;61.74;100158.84;2396705;74;50475;-76
2022/10/15 08:08:06;;;;;;;;;;;;;;;19.06;61.78;100157.38;2349834;74;51041;-76
2022/10/15 08:11:09;;;;;;;;;;;;;;;19.09;61.77;100161.03;2377090;74;50399;-75
2022/10/15 08:14:11;;;;;;;;;;;;;;;19.06;61.79;100150.67;2396751;74;50820;-76
2022/10/15 08:17:13;;;;;;;;;;;;;;;19.06;61.78;100160.06;2397800;74;50372;-76
2022/10/15 08:20:14;;;;;;;;;;;;;;;19.04;61.80;100160.28;2349592;74;51300;-76
2022/10/15 08:23:16;;;;;;;;;;;;;;;19.06;61.73;100168.11;2397764;73;50392;-76
2022/10/15 08:26:18;;;;;;;;;;;;;;;19.04;61.80;100163.48;2397875;74;51555;-76
2022/10/15 08:29:19;;;;;;;;;;;;;;;19.05;61.76;100170.48;2365261;74;50670;-76
2022/10/15 08:32:21;;;;;;;;;;;;;;;19.05;61.75;100173.98;2335295;76;52923;-76
2022/10/15 08:35:22;;;;;;;;;;;;;;;19.03;61.80;100175.21;2315382;76;53383;-76
2022/10/15 08:38:24;;;;;;;;;;;;;;;19.07;61.74;100176.48;2337762;76;51561;-76
2022/10/15 08:41:27;;;;;;;;;;;;;;;19.03;61.80;100174.69;2337726;76;51557;-75
2022/10/15 08:44:30;;;;;;;;;;;;;;;19.03;61.81;100172.01;2314333;76;52121;-76
2022/10/15 08:47:36;;;;;;;;;;;;;;;19.03;61.82;100172.53;2337665;76;51590;-77
2022/10/15 08:50:39;;;;;;;;;;;;;;;19.02;61.85;100177.59;2337862;76;51505;-77
2022/10/15 08:53:44;;;;;;;;;;;;;;;18.97;62.00;100178.69;2337655;76;51478;-75
2022/10/15 08:56:50;;;;;;;;;;;;;;;18.92;62.11;100180.62;2337670;76;50299;-77
2022/10/15 08:59:57;;;;;;;;;;;;;;;18.91;62.16;100183.81;2362116;73;51506;-75
2022/10/15 09:03:00;;;;;;;;;;;;;;;18.91;62.16;100186.50;2335427;74;50454;-76
2022/10/15 09:06:15;;;;;;;;;;;;;;;18.90;62.20;100193.37;2335310;76;51545;-75
2022/10/15 09:09:21;;;;;;;;;;;;;;;18.87;62.27;100193.78;2313375;76;51814;-76
2022/10/15 09:12:27;;;;;;;;;;;;;;;18.85;62.32;100194.48;2335089;76;51579;-76
2022/10/15 09:15:31;;;;;;;;;;;;;;;18.83;62.35;100198.72;2335385;76;51477;-76
2022/10/15 09:18:33;;;;;;;;;;;;;;;18.81;62.43;100194.06;2335458;76;50417;-75
2022/10/15 09:21:34;;;;;;;;;;;;;;;18.81;62.44;100193.23;2335537;76;51574;-75
2022/10/15 09:24:36;;;;;;;;;;;;;;;18.82;62.43;100193.54;2335495;76;50343;-76
2022/10/15 09:27:38;;;;;;;;;;;;;;;18.85;62.35;100193.96;2313184;76;50501;-76
2022/10/15 09:30:42;;;;;;;;;;;;;;;18.86;62.26;100199.66;2378484;74;51581;-76
2022/10/15 09:33:48;;;;;;;;;;;;;;;18.87;62.26;100195.94;2376963;74;49930;-76
2022/10/15 09:36:51;;;;;;;;;;;;;;;18.85;62.31;100202.52;2397954;74;50829;-77
2022/10/15 09:39:57;;;;;;;;;;;;;;;18.85;62.29;100191.28;2377346;74;49844;-77
2022/10/15 09:42:58;;;;;;;;;;;;;;;18.89;62.79;100197.92;2397879;74;50786;-78
2022/10/15 09:46:00;;;;;;;;;;;;;;;18.92;63.23;100205.56;2377056;74;53013;-77
2022/10/15 09:49:09;;;;;;;;;;;;;;;18.90;63.22;100206.27;2377687;74;50753;-78
2022/10/15 09:52:18;;;;;;;;;;;;;;;18.87;63.56;100210.69;2398261;74;50680;-78
2022/10/15 09:55:24;;;;;;;;;;;;;;;18.85;63.69;100207.37;2397992;74;50970;-78
2022/10/15 09:58:27;;;;;;;;;;;;;;;18.87;63.68;100210.69;2377053;74;51369;-78
2022/10/15 10:01:30;;;;;;;;;;;;;;;18.88;63.74;100208.83;2406692;74;50726;-79
2022/10/15 10:04:32;;;;;;;;;;;;;;;18.84;64.22;100207.06;2406861;74;50247;-79
2022/10/15 10:07:37;;;;;;;;;;;;;;;18.88;64.21;100200.78;2410336;74;50746;-78
2022/10/15 10:10:39;;;;;;;;;;;;;;;18.85;64.41;100209.22;2406547;74;50860;-79
2022/10/15 10:13:42;;;;;;;;;;;;;;;18.88;64.17;100215.05;2406859;74;51439;-78
2022/10/15 10:17:01;;;;;;;;;;;;;;;18.90;64.07;100218.33;2405900;74;51495;-78
2022/10/15 10:20:05;;;;;;;;;;;;;;;18.90;64.21;100217.51;2339165;75;51582;-79
2022/10/15 10:23:11;;;;;;;;;;;;;;;18.91;64.23;100220.52;2365544;74;50202;-77
2022/10/15 10:26:12;;;;;;;;;;;;;;;18.91;64.27;100221.34;2357866;74;51676;-77
2022/10/15 10:29:20;;;;;;;;;;;;;;;18.92;64.30;100221.66;2378788;73;51578;-76
2022/10/15 10:32:23;;;;;;;;;;;;;;;18.95;64.81;100218.27;2388370;74;50721;-76
2022/10/15 10:35:25;;;;;;;;;;;;;;;18.94;64.84;100213.42;2359264;74;50701;-76
2022/10/15 10:38:30;;;;;;;;;;;;;;;18.95;64.87;100216.93;2344554;73;51577;-77
2022/10/15 10:41:51;;;;;;;;;;;;;;;18.96;65.08;100222.59;2384113;74;50790;-78
2022/10/15 10:44:53;;;;;;;;;;;;;;;18.97;65.20;100220.25;2397865;73;50904;-76
2022/10/15 10:47:54;;;;;;;;;;;;;;;18.94;65.21;100217.45;2366206;74;50986;-77
2022/10/15 10:51:03;;;;;;;;;;;;;;;18.95;65.40;100220.44;2389497;73;50436;-78
2022/10/15 10:54:05;;;;;;;;;;;;;;;18.95;65.48;100224.97;2380627;73;51629;-77
2022/10/15 10:57:07;;;;;;;;;;;;;;;18.98;65.52;100217.88;2387314;74;50698;-77
2022/10/15 11:00:10;;;;;;;;;;;;;;;18.98;65.52;100224.58;2353231;73;50589;-78
2022/10/15 11:03:13;;;;;;;;;;;;;;;19.01;65.60;100232.22;2379197;75;50362;-76
2022/10/15 11:06:30;;;;;;;;;;;;;;;18.99;65.62;100238.31;2373109;75;50251;-75
2022/10/15 11:09:33;;;;;;;;;;;;;;;18.96;65.80;100222.11;2367378;75;50305;-76
2022/10/15 11:12:37;;;;;;;;;;;;;;;18.93;65.87;100224.67;2366500;75;49634;-76
2022/10/15 11:15:41;;;;;;;;;;;;;;;18.92;65.87;100226.19;2369057;75;50914;-75
2022/10/15 11:18:50;;;;;;;;;;;;;;;18.94;65.96;100226.83;2369115;75;51531;-75
2022/10/15 11:22:08;;;;;;;;;;;;;;;18.93;66.04;100221.98;2369159;74;50547;-75
2022/10/15 11:25:15;;;;;;;;;;;;;;;18.92;66.11;100232.89;2368956;75;51508;-75
2022/10/15 11:28:21;;;;;;;;;;;;;;;18.92;66.22;100228.88;2369055;74;50295;-76
2022/10/15 11:31:31;;;;;;;;;;;;;;;18.92;66.20;100221.66;2346117;75;51334;-75
2022/10/15 11:34:34;;;;;;;;;;;;;;;18.97;66.22;100222.93;2369092;75;55065;-75
2022/10/15 11:37:40;;;;;;;;;;;;;;;18.95;66.30;100215.59;2347404;74;49744;-75
2022/10/15 11:40:46;;;;;;;;;;;;;;;18.93;66.41;100224.67;2391841;74;51471;-75
2022/10/15 11:44:08;;;;;;;;;;;;;;;18.91;66.45;100210.63;2406531;73;50789;-75
2022/10/15 11:47:11;;;;;;;;;;;;;;;18.93;66.57;100209.92;2429361;73;51525;-75
2022/10/15 11:50:20;;;;;;;;;;;;;;;18.95;66.85;100205.69;2394991;73;53991;-75
2022/10/15 11:53:35;;;;;;;;;;;;;;;18.98;66.57;100201.78;2428714;73;51987;-74
2022/10/15 11:56:39;;;;;;;;;;;;;;;18.96;66.70;100199.81;2427955;73;52361;-77
2022/10/15 11:59:42;;;;;;;;;;;;;;;19.00;66.49;100205.11;2399717;73;51479;-76
2022/10/15 12:02:43;;;;;;;;;;;;;;;18.97;66.64;100204.98;2356852;75;51332;-76
2022/10/15 12:05:46;;;;;;;;;;;;;;;18.97;67.16;100205.50;2378603;75;51488;-73
2022/10/15 12:08:48;;;;;;;;;;;;;;;19.00;67.67;100205.11;2337567;76;50423;-75
2022/10/15 12:11:54;;;;;;;;;;;;;;;19.02;67.60;100207.08;2337668;76;50344;-75
2022/10/15 12:15:16;;;;;;;;;;;;;;;19.02;67.29;100205.74;2315204;76;51905;-77
2022/10/15 12:18:19;;;;;;;;;;;;;;;19.02;67.37;100204.41;2337638;76;50483;-77
2022/10/15 12:21:28;;;;;;;;;;;;;;;19.02;67.29;100204.41;2342693;73;50303;-76
2022/10/15 12:24:43;;;;;;;;;;;;;;;19.02;67.12;100204.41;2392528;73;51807;-78
2022/10/15 12:27:43;;;;;;;;;;;;;;;19.02;67.05;100206.56;2397985;74;22389;-77
2022/10/15 12:30:55;;;;;;;;;;;;;;;19.01;67.11;100202.73;2391309;74;50731;-75
2022/10/15 12:33:57;;;;;;;;;;;;;;;19.03;67.21;100202.02;2393450;74;51686;-75
2022/10/15 12:37:00;;;;;;;;;;;;;;;19.03;67.66;100206.05;2406252;74;51524;-76
2022/10/15 12:40:03;;;;;;;;;;;;;;;19.03;67.44;100212.75;2374225;74;52698;-75
2022/10/15 12:43:14;;;;;;;;;;;;;;;19.03;67.32;100213.57;2428458;73;50680;-76
2022/10/15 12:46:16;;;;;;;;;;;;;;;19.01;67.34;100212.11;2428950;73;50488;-75
2022/10/15 12:49:31;;;;;;;;;;;;;;;18.99;67.39;100208.82;2429187;73;50496;-75
2022/10/15 12:52:51;;;;;;;;;;;;;;;19.00;67.33;100211.81;2371546;74;50241;-75
2022/10/15 12:56:15;;;;;;;;;;;;;;;18.97;67.46;100213.03;2397419;74;50526;-76
2022/10/15 12:59:30;;;;;;;;;;;;;;;18.96;67.51;100211.88;2397818;74;51586;-76
2022/10/15 13:02:33;;;;;;;;;;;;;;;18.96;67.55;100205.17;2397902;74;51584;-76
2022/10/15 13:05:35;;;;;;;;;;;;;;;18.97;67.47;100204.16;2397729;74;50776;-75
2022/10/15 13:08:36;;;;;;;;;;;;;;;18.96;67.56;100203.34;2398067;74;50626;-76
2022/10/15 13:11:48;;;;;;;;;;;;;;;18.95;67.53;100201.66;2398019;74;51593;-75
2022/10/15 13:14:51;;;;;;;;;;;;;;;18.95;67.53;100194.96;2397617;74;50463;-75
2022/10/15 13:17:54;;;;;;;;;;;;;;;18.95;67.65;100196.82;2377173;74;49591;-75
2022/10/15 13:20:56;;;;;;;;;;;;;;;18.95;67.59;100201.66;2393320;74;50390;-75
2022/10/15 13:23:58;;;;;;;;;;;;;;;18.93;67.74;100197.86;2359774;74;50743;-76
2022/10/15 13:26:59;;;;;;;;;;;;;;;18.93;67.70;100196.52;2335517;76;51511;-75
2022/10/15 13:30:02;;;;;;;;;;;;;;;18.95;67.65;100196.82;2335459;76;50327;-75
2022/10/15 13:33:04;;;;;;;;;;;;;;;18.96;67.56;100201.14;2313130;76;50315;-75
2022/10/15 13:36:06;;;;;;;;;;;;;;;18.96;67.50;100198.47;2335209;76;50738;-74
2022/10/15 13:39:08;;;;;;;;;;;;;;;18.97;67.39;100201.48;2340525;73;50340;-74
2022/10/15 13:42:11;;;;;;;;;;;;;;;18.98;67.36;100197.77;2351870;74;52562;-77
2022/10/15 13:45:15;;;;;;;;;;;;;;;18.97;67.39;100197.46;2397736;74;51582;-75
2022/10/15 13:48:18;;;;;;;;;;;;;;;18.94;67.53;100189.30;2397909;74;51605;-77
2022/10/15 13:51:19;;;;;;;;;;;;;;;18.95;67.59;100196.82;2397819;74;51548;-75
2022/10/15 13:54:22;;;;;;;;;;;;;;;18.96;67.76;100200.66;2376862;74;50247;-75
2022/10/15 13:57:24;;;;;;;;;;;;;;;18.93;67.89;100191.16;2397905;74;50378;-74
2022/10/15 14:00:26;;;;;;;;;;;;;;;18.95;67.71;100196.30;2397868;73;50731;-75
2022/10/15 14:03:29;;;;;;;;;;;;;;;18.97;67.61;100198.80;2397597;74;51577;-75
2022/10/15 14:06:33;;;;;;;;;;;;;;;19.00;67.47;100198.40;2377010;74;51353;-75
2022/10/15 14:09:35;;;;;;;;;;;;;;;18.97;67.63;100198.80;2397629;74;51505;-75
2022/10/15 14:12:37;;;;;;;;;;;;;;;18.99;67.55;100196.76;2352051;75;50577;-76
2022/10/15 14:15:59;;;;;;;;;;;;;;;18.98;67.72;100199.11;2382443;73;51445;-75
2022/10/15 14:19:08;;;;;;;;;;;;;;;18.97;67.65;100200.97;2384611;74;51560;-75
2022/10/15 14:22:11;;;;;;;;;;;;;;;18.93;67.94;100196.52;2351372;74;49414;-76
2022/10/15 14:25:14;;;;;;;;;;;;;;;18.92;67.86;100200.20;2383765;74;50414;-75
2022/10/15 14:28:16;;;;;;;;;;;;;;;18.93;67.81;100199.69;2384622;74;51656;-75
2022/10/15 14:31:26;;;;;;;;;;;;;;;18.91;68.00;100199.08;2384542;74;50453;-75
2022/10/15 14:34:29;;;;;;;;;;;;;;;18.90;68.03;100191.52;2350060;74;51830;-74
2022/10/15 14:37:32;;;;;;;;;;;;;;;18.90;67.94;100198.23;2382979;74;50242;-75
2022/10/15 14:40:34;;;;;;;;;;;;;;;18.91;67.84;100205.27;2384630;74;50421;-74
2022/10/15 14:43:36;;;;;;;;;;;;;;;18.91;67.92;100204.44;2385638;74;50417;-74
2022/10/15 14:46:40;;;;;;;;;;;;;;;18.89;67.93;100199.78;2366076;74;50449;-74
2022/10/15 14:49:41;;;;;;;;;;;;;;;18.89;68.00;100203.28;2389167;74;51689;-74
2022/10/15 14:52:43;;;;;;;;;;;;;;;18.91;67.86;100207.13;2390596;74;51609;-77
2022/10/15 14:55:51;;;;;;;;;;;;;;;18.92;67.82;100207.42;2390488;74;50768;-76
2022/10/15 14:58:55;;;;;;;;;;;;;;;18.90;67.95;100208.95;2357414;73;49683;-76
2022/10/15 15:01:58;;;;;;;;;;;;;;;18.91;67.72;100207.94;2393352;74;50328;-76
2022/10/15 15:05:13;;;;;;;;;;;;;;;18.89;67.86;100199.27;2397622;74;50779;-76
2022/10/15 15:08:15;;;;;;;;;;;;;;;18.89;67.85;100199.27;2397890;74;51595;-77
2022/10/15 15:11:20;;;;;;;;;;;;;;;18.90;67.93;100218.84;2377153;74;50911;-78
2022/10/15 15:14:24;;;;;;;;;;;;;;;18.90;67.76;100217.51;2397887;74;50775;-76
2022/10/15 15:17:27;;;;;;;;;;;;;;;18.87;67.96;100220.07;2398001;73;51545;-76
2022/10/15 15:20:29;;;;;;;;;;;;;;;18.85;67.92;100219.43;2397863;74;50445;-76
2022/10/15 15:23:30;;;;;;;;;;;;;;;18.86;67.97;100224.30;2397762;74;50910;-76
2022/10/15 15:26:32;;;;;;;;;;;;;;;18.87;67.88;100228.11;2397949;74;51520;-76
2022/10/15 15:29:34;;;;;;;;;;;;;;;18.86;67.89;100219.77;2395287;74;51543;-77
2022/10/15 15:32:35;;;;;;;;;;;;;;;18.86;67.87;100217.60;2396232;74;51472;-76
2022/10/15 15:35:51;;;;;;;;;;;;;;;18.85;67.95;100217.27;2377107;74;51042;-76
2022/10/15 15:38:57;;;;;;;;;;;;;;;18.83;67.88;100219.31;2397994;74;50273;-77
2022/10/15 15:41:56;;;;;;;;;;;;;;;18.85;67.77;100219.43;2377209;74;22444;-77